sensor_id;sensor_type;location;lat;lon;timestamp;temperature;humidity
28530;DHT22;15737;49.760;6.632;2023-09-19T00:01:06;15.10;99.90
28530;DHT22;15737;49.760;6.632;2023-09-19T00:03:35;15.10;99.90
28530;DHT22;15737;49.760;6.632;2023-09-19T00:06:04;15.00;99.90
28530;DHT22;15737;49.760;6.632;2023-09-19T00:08:30;15.00;99.90
28530;DHT22;15737;49.760;6.632;2023-09-19T00:10:57;14.90;99.90
28530;DHT22;15737;49.760;6.632;2023-09-19T00:13:34;14.90;99.90
28530;DHT22;15737;49.760;6.632;2023-09-19T00:16:01;14.90;99.90
28530;DHT22;15737;49.760;6.632;2023-09-19T00:18:33;14.80;99.90
28530;DHT22;15737;49.760;6.632;2023-09-19T00:21:00;14.90;99.90
28530;DHT22;15737;49.760;6.632;2023-09-19T00:23:26;14.90;99.90
28530;DHT22;15737;49.760;6.632;2023-09-19T00:25:52;14.90;99.90
28530;DHT22;15737;49.760;6.632;2023-09-19T00:28:18;14.90;99.90
28530;DHT22;15737;49.760;6.632;2023-09-19T00:30:45;14.90;99.90
28530;DHT22;15737;49.760;6.632;2023-09-19T00:33:15;14.90;99.90
28530;DHT22;15737;49.760;6.632;2023-09-19T00:35:48;14.90;99.90
28530;DHT22;15737;49.760;6.632;2023-09-19T00:38:14;14.80;99.90
28530;DHT22;15737;49.760;6.632;2023-09-19T00:40:46;14.80;99.90
28530;DHT22;15737;49.760;6.632;2023-09-19T00:43:12;14.80;99.90
28530;DHT22;15737;49.760;6.632;2023-09-19T00:45:38;14.80;99.90
28530;DHT22;15737;49.760;6.632;2023-09-19T00:48:04;14.80;99.90
28530;DHT22;15737;49.760;6.632;2023-09-19T00:50:31;14.80;99.90
28530;DHT22;15737;49.760;6.632;2023-09-19T00:52:58;14.70;99.90
28530;DHT22;15737;49.760;6.632;2023-09-19T00:55:25;14.70;99.90
28530;DHT22;15737;49.760;6.632;2023-09-19T00:57:51;14.70;99.90
28530;DHT22;15737;49.760;6.632;2023-09-19T01:00:18;14.70;99.90
28530;DHT22;15737;49.760;6.632;2023-09-19T01:02:46;14.70;99.90
28530;DHT22;15737;49.760;6.632;2023-09-19T01:05:12;14.60;99.90
28530;DHT22;15737;49.760;6.632;2023-09-19T01:07:38;14.60;99.90
28530;DHT22;15737;49.760;6.632;2023-09-19T01:10:08;14.60;99.90
28530;DHT22;15737;49.760;6.632;2023-09-19T01:18:35;14.60;99.90
28530;DHT22;15737;49.760;6.632;2023-09-19T01:26:55;14.70;99.90
28530;DHT22;15737;49.760;6.632;2023-09-19T01:32:08;14.70;99.90
28530;DHT22;15737;49.760;6.632;2023-09-19T01:34:45;14.70;99.90
28530;DHT22;15737;49.760;6.632;2023-09-19T01:37:13;14.60;99.90
28530;DHT22;15737;49.760;6.632;2023-09-19T01:39:40;14.60;99.90
28530;DHT22;15737;49.760;6.632;2023-09-19T01:42:17;14.60;99.90
28530;DHT22;15737;49.760;6.632;2023-09-19T01:47:29;14.70;99.90
28530;DHT22;15737;49.760;6.632;2023-09-19T01:52:54;14.60;99.90
28530;DHT22;15737;49.760;6.632;2023-09-19T01:55:22;14.60;99.90
28530;DHT22;15737;49.760;6.632;2023-09-19T01:58:06;14.50;99.90
28530;DHT22;15737;49.760;6.632;2023-09-19T02:00:36;14.50;99.90
28530;DHT22;15737;49.760;6.632;2023-09-19T02:03:03;14.50;99.90
28530;DHT22;15737;49.760;6.632;2023-09-19T02:05:29;14.40;99.90
28530;DHT22;15737;49.760;6.632;2023-09-19T02:07:55;14.50;99.90
28530;DHT22;15737;49.760;6.632;2023-09-19T02:10:22;14.50;99.90
28530;DHT22;15737;49.760;6.632;2023-09-19T02:12:48;14.50;99.90
28530;DHT22;15737;49.760;6.632;2023-09-19T02:15:14;14.50;99.90
28530;DHT22;15737;49.760;6.632;2023-09-19T02:17:41;14.40;99.90
28530;DHT22;15737;49.760;6.632;2023-09-19T02:20:08;14.50;99.90
28530;DHT22;15737;49.760;6.632;2023-09-19T02:22:35;14.50;99.90
28530;DHT22;15737;49.760;6.632;2023-09-19T02:25:01;14.40;99.90
28530;DHT22;15737;49.760;6.632;2023-09-19T02:27:27;14.40;99.90
28530;DHT22;15737;49.760;6.632;2023-09-19T02:29:52;14.50;99.90
28530;DHT22;15737;49.760;6.632;2023-09-19T02:32:18;14.50;99.90
28530;DHT22;15737;49.760;6.632;2023-09-19T02:34:43;14.50;99.90
28530;DHT22;15737;49.760;6.632;2023-09-19T02:37:10;14.50;99.90
28530;DHT22;15737;49.760;6.632;2023-09-19T02:39:36;14.50;99.90
28530;DHT22;15737;49.760;6.632;2023-09-19T02:42:01;14.50;99.90
28530;DHT22;15737;49.760;6.632;2023-09-19T02:44:29;14.50;99.90
28530;DHT22;15737;49.760;6.632;2023-09-19T02:46:55;14.50;99.90
28530;DHT22;15737;49.760;6.632;2023-09-19T02:49:20;14.50;99.90
28530;DHT22;15737;49.760;6.632;2023-09-19T02:51:46;14.60;99.90
28530;DHT22;15737;49.760;6.632;2023-09-19T02:54:12;14.60;99.90
28530;DHT22;15737;49.760;6.632;2023-09-19T02:56:38;14.60;99.90
28530;DHT22;15737;49.760;6.632;2023-09-19T02:59:04;14.70;99.90
28530;DHT22;15737;49.760;6.632;2023-09-19T03:01:31;14.70;99.90
28530;DHT22;15737;49.760;6.632;2023-09-19T03:03:57;14.70;99.90
28530;DHT22;15737;49.760;6.632;2023-09-19T03:06:23;14.70;99.90
28530;DHT22;15737;49.760;6.632;2023-09-19T03:08:49;14.60;99.90
28530;DHT22;15737;49.760;6.632;2023-09-19T03:11:17;14.60;99.90
28530;DHT22;15737;49.760;6.632;2023-09-19T03:13:51;14.60;99.90
28530;DHT22;15737;49.760;6.632;2023-09-19T03:16:16;14.60;99.90
28530;DHT22;15737;49.760;6.632;2023-09-19T03:18:42;14.50;99.90
28530;DHT22;15737;49.760;6.632;2023-09-19T03:21:07;14.40;99.90
28530;DHT22;15737;49.760;6.632;2023-09-19T03:23:33;14.40;99.90
28530;DHT22;15737;49.760;6.632;2023-09-19T03:25:58;14.40;99.90
28530;DHT22;15737;49.760;6.632;2023-09-19T03:28:24;14.40;99.90
28530;DHT22;15737;49.760;6.632;2023-09-19T03:31:04;14.40;99.90
28530;DHT22;15737;49.760;6.632;2023-09-19T03:33:30;14.30;99.90
28530;DHT22;15737;49.760;6.632;2023-09-19T03:35:58;14.30;99.90
28530;DHT22;15737;49.760;6.632;2023-09-19T03:38:24;14.30;99.90
28530;DHT22;15737;49.760;6.632;2023-09-19T03:40:50;14.30;99.90
28530;DHT22;15737;49.760;6.632;2023-09-19T03:43:16;14.30;99.90
28530;DHT22;15737;49.760;6.632;2023-09-19T03:45:41;14.30;99.90
28530;DHT22;15737;49.760;6.632;2023-09-19T03:48:10;14.30;99.90
28530;DHT22;15737;49.760;6.632;2023-09-19T03:50:36;14.30;99.90
28530;DHT22;15737;49.760;6.632;2023-09-19T03:53:02;14.30;99.90
28530;DHT22;15737;49.760;6.632;2023-09-19T03:55:28;14.20;99.90
28530;DHT22;15737;49.760;6.632;2023-09-19T03:57:56;14.20;99.90
28530;DHT22;15737;49.760;6.632;2023-09-19T04:00:21;14.30;99.90
28530;DHT22;15737;49.760;6.632;2023-09-19T04:02:49;14.30;99.90
28530;DHT22;15737;49.760;6.632;2023-09-19T04:05:16;14.20;99.90
28530;DHT22;15737;49.760;6.632;2023-09-19T04:07:42;14.20;99.90
28530;DHT22;15737;49.760;6.632;2023-09-19T04:10:08;14.20;99.90
28530;DHT22;15737;49.760;6.632;2023-09-19T04:12:40;14.10;99.90
28530;DHT22;15737;49.760;6.632;2023-09-19T04:15:06;14.10;99.90
28530;DHT22;15737;49.760;6.632;2023-09-19T04:17:33;14.10;99.90
28530;DHT22;15737;49.760;6.632;2023-09-19T04:19:59;14.10;99.90
28530;DHT22;15737;49.760;6.632;2023-09-19T04:24:55;14.20;99.90
28530;DHT22;15737;49.760;6.632;2023-09-19T04:27:20;14.20;99.90
28530;DHT22;15737;49.760;6.632;2023-09-19T04:29:46;14.20;99.90
28530;DHT22;15737;49.760;6.632;2023-09-19T04:32:11;14.30;99.90
28530;DHT22;15737;49.760;6.632;2023-09-19T04:34:38;14.20;99.90
28530;DHT22;15737;49.760;6.632;2023-09-19T04:37:04;14.20;99.90
28530;DHT22;15737;49.760;6.632;2023-09-19T04:39:29;14.20;99.90
28530;DHT22;15737;49.760;6.632;2023-09-19T04:41:55;14.10;99.90
28530;DHT22;15737;49.760;6.632;2023-09-19T04:44:20;14.10;99.90
28530;DHT22;15737;49.760;6.632;2023-09-19T04:46:46;14.00;99.90
28530;DHT22;15737;49.760;6.632;2023-09-19T04:49:12;14.00;99.90
28530;DHT22;15737;49.760;6.632;2023-09-19T04:51:38;14.00;99.90
28530;DHT22;15737;49.760;6.632;2023-09-19T04:54:04;14.00;99.90
28530;DHT22;15737;49.760;6.632;2023-09-19T04:56:30;14.00;99.90
28530;DHT22;15737;49.760;6.632;2023-09-19T04:58:57;14.00;99.90
28530;DHT22;15737;49.760;6.632;2023-09-19T05:01:24;14.00;99.90
28530;DHT22;15737;49.760;6.632;2023-09-19T05:03:50;14.00;99.90
28530;DHT22;15737;49.760;6.632;2023-09-19T05:06:22;14.00;99.90
28530;DHT22;15737;49.760;6.632;2023-09-19T05:08:48;14.00;99.90
28530;DHT22;15737;49.760;6.632;2023-09-19T05:11:20;14.00;99.90
28530;DHT22;15737;49.760;6.632;2023-09-19T05:13:50;13.90;99.90
28530;DHT22;15737;49.760;6.632;2023-09-19T05:16:16;13.90;99.90
28530;DHT22;15737;49.760;6.632;2023-09-19T05:18:42;13.90;99.90
28530;DHT22;15737;49.760;6.632;2023-09-19T05:21:07;13.80;99.90
28530;DHT22;15737;49.760;6.632;2023-09-19T05:23:33;13.80;99.90
28530;DHT22;15737;49.760;6.632;2023-09-19T05:25:59;13.80;99.90
28530;DHT22;15737;49.760;6.632;2023-09-19T05:28:26;13.80;99.90
28530;DHT22;15737;49.760;6.632;2023-09-19T05:30:52;13.70;99.90
28530;DHT22;15737;49.760;6.632;2023-09-19T05:33:21;13.80;99.90
28530;DHT22;15737;49.760;6.632;2023-09-19T05:35:49;13.70;99.90
28530;DHT22;15737;49.760;6.632;2023-09-19T05:38:15;13.70;99.90
28530;DHT22;15737;49.760;6.632;2023-09-19T05:40:44;13.70;99.90
28530;DHT22;15737;49.760;6.632;2023-09-19T05:43:10;13.70;99.90
28530;DHT22;15737;49.760;6.632;2023-09-19T05:45:36;13.70;99.90
28530;DHT22;15737;49.760;6.632;2023-09-19T05:48:13;13.70;99.90
28530;DHT22;15737;49.760;6.632;2023-09-19T05:50:41;13.70;99.90
28530;DHT22;15737;49.760;6.632;2023-09-19T05:53:06;13.70;99.90
28530;DHT22;15737;49.760;6.632;2023-09-19T05:55:44;13.70;99.90
28530;DHT22;15737;49.760;6.632;2023-09-19T05:58:11;13.80;99.90
28530;DHT22;15737;49.760;6.632;2023-09-19T06:00:39;13.80;99.90
28530;DHT22;15737;49.760;6.632;2023-09-19T06:03:07;13.90;99.90
28530;DHT22;15737;49.760;6.632;2023-09-19T06:05:33;13.90;99.90
28530;DHT22;15737;49.760;6.632;2023-09-19T06:07:59;14.00;99.90
28530;DHT22;15737;49.760;6.632;2023-09-19T06:10:33;14.00;99.90
28530;DHT22;15737;49.760;6.632;2023-09-19T06:13:00;14.10;99.90
28530;DHT22;15737;49.760;6.632;2023-09-19T06:15:25;14.20;99.90
28530;DHT22;15737;49.760;6.632;2023-09-19T06:17:54;14.20;99.90
28530;DHT22;15737;49.760;6.632;2023-09-19T06:20:25;14.30;99.90
28530;DHT22;15737;49.760;6.632;2023-09-19T06:22:51;14.30;99.90
28530;DHT22;15737;49.760;6.632;2023-09-19T06:25:17;14.40;99.90
28530;DHT22;15737;49.760;6.632;2023-09-19T06:27:52;14.50;99.90
28530;DHT22;15737;49.760;6.632;2023-09-19T06:30:19;14.60;99.90
28530;DHT22;15737;49.760;6.632;2023-09-19T06:32:45;14.70;99.90
28530;DHT22;15737;49.760;6.632;2023-09-19T06:35:12;14.80;99.90
28530;DHT22;15737;49.760;6.632;2023-09-19T06:37:39;14.90;99.90
28530;DHT22;15737;49.760;6.632;2023-09-19T06:40:10;15.00;99.90
28530;DHT22;15737;49.760;6.632;2023-09-19T06:42:43;15.00;99.90
28530;DHT22;15737;49.760;6.632;2023-09-19T06:45:15;15.20;99.90
28530;DHT22;15737;49.760;6.632;2023-09-19T06:47:51;15.20;99.90
28530;DHT22;15737;49.760;6.632;2023-09-19T06:50:17;15.30;99.90
28530;DHT22;15737;49.760;6.632;2023-09-19T06:52:45;15.50;99.90
28530;DHT22;15737;49.760;6.632;2023-09-19T06:55:13;15.50;99.90
28530;DHT22;15737;49.760;6.632;2023-09-19T06:57:42;15.50;99.90
28530;DHT22;15737;49.760;6.632;2023-09-19T07:00:09;15.50;99.90
28530;DHT22;15737;49.760;6.632;2023-09-19T07:02:44;15.50;99.90
28530;DHT22;15737;49.760;6.632;2023-09-19T07:05:09;15.50;99.90
28530;DHT22;15737;49.760;6.632;2023-09-19T07:07:35;15.60;99.90
28530;DHT22;15737;49.760;6.632;2023-09-19T07:10:04;15.90;99.90
28530;DHT22;15737;49.760;6.632;2023-09-19T07:12:35;16.00;99.90
28530;DHT22;15737;49.760;6.632;2023-09-19T07:15:01;16.00;99.90
28530;DHT22;15737;49.760;6.632;2023-09-19T07:17:26;16.10;99.90
28530;DHT22;15737;49.760;6.632;2023-09-19T07:19:54;16.10;99.90
28530;DHT22;15737;49.760;6.632;2023-09-19T07:22:28;16.10;99.90
28530;DHT22;15737;49.760;6.632;2023-09-19T07:24:53;15.90;99.90
28530;DHT22;15737;49.760;6.632;2023-09-19T07:27:19;15.90;99.90
28530;DHT22;15737;49.760;6.632;2023-09-19T07:29:44;16.00;99.90
28530;DHT22;15737;49.760;6.632;2023-09-19T07:32:10;16.00;99.90
28530;DHT22;15737;49.760;6.632;2023-09-19T07:34:37;16.20;99.90
28530;DHT22;15737;49.760;6.632;2023-09-19T07:37:04;16.40;99.90
28530;DHT22;15737;49.760;6.632;2023-09-19T07:39:29;16.40;99.90
28530;DHT22;15737;49.760;6.632;2023-09-19T07:41:55;16.70;99.90
28530;DHT22;15737;49.760;6.632;2023-09-19T07:44:21;17.10;99.90
28530;DHT22;15737;49.760;6.632;2023-09-19T07:46:53;17.60;99.90
28530;DHT22;15737;49.760;6.632;2023-09-19T07:49:19;17.60;99.90
28530;DHT22;15737;49.760;6.632;2023-09-19T07:51:44;17.80;99.90
28530;DHT22;15737;49.760;6.632;2023-09-19T07:54:12;18.30;99.90
28530;DHT22;15737;49.760;6.632;2023-09-19T07:56:38;18.30;99.90
28530;DHT22;15737;49.760;6.632;2023-09-19T07:59:03;18.60;99.90
28530;DHT22;15737;49.760;6.632;2023-09-19T08:01:29;19.00;99.90
28530;DHT22;15737;49.760;6.632;2023-09-19T08:03:54;19.90;99.90
28530;DHT22;15737;49.760;6.632;2023-09-19T08:06:20;21.20;99.90
28530;DHT22;15737;49.760;6.632;2023-09-19T08:08:46;21.10;99.90
28530;DHT22;15737;49.760;6.632;2023-09-19T08:11:11;20.70;99.90
28530;DHT22;15737;49.760;6.632;2023-09-19T08:13:44;20.50;99.90
28530;DHT22;15737;49.760;6.632;2023-09-19T08:16:11;20.80;99.90
28530;DHT22;15737;49.760;6.632;2023-09-19T08:18:38;21.10;99.90
28530;DHT22;15737;49.760;6.632;2023-09-19T08:21:06;20.70;99.90
28530;DHT22;15737;49.760;6.632;2023-09-19T08:23:39;21.20;99.90
28530;DHT22;15737;49.760;6.632;2023-09-19T08:26:06;21.90;99.90
28530;DHT22;15737;49.760;6.632;2023-09-19T08:28:35;22.10;99.90
28530;DHT22;15737;49.760;6.632;2023-09-19T08:31:04;22.30;99.90
28530;DHT22;15737;49.760;6.632;2023-09-19T08:33:32;22.00;99.90
28530;DHT22;15737;49.760;6.632;2023-09-19T08:35:58;22.60;99.90
28530;DHT22;15737;49.760;6.632;2023-09-19T08:38:24;22.90;99.90
28530;DHT22;15737;49.760;6.632;2023-09-19T08:40:57;22.90;99.90
28530;DHT22;15737;49.760;6.632;2023-09-19T08:43:25;22.30;99.90
28530;DHT22;15737;49.760;6.632;2023-09-19T08:45:56;22.70;99.90
28530;DHT22;15737;49.760;6.632;2023-09-19T08:48:26;22.70;99.90
28530;DHT22;15737;49.760;6.632;2023-09-19T08:51:02;22.10;99.90
28530;DHT22;15737;49.760;6.632;2023-09-19T08:53:47;21.50;99.90
28530;DHT22;15737;49.760;6.632;2023-09-19T08:56:17;21.90;99.90
28530;DHT22;15737;49.760;6.632;2023-09-19T09:01:22;22.10;99.90
28530;DHT22;15737;49.760;6.632;2023-09-19T09:03:54;22.90;99.90
28530;DHT22;15737;49.760;6.632;2023-09-19T09:06:23;23.50;99.00
28530;DHT22;15737;49.760;6.632;2023-09-19T09:08:53;24.50;96.30
28530;DHT22;15737;49.760;6.632;2023-09-19T09:11:19;24.90;95.40
28530;DHT22;15737;49.760;6.632;2023-09-19T09:13:45;25.20;94.30
28530;DHT22;15737;49.760;6.632;2023-09-19T09:16:11;23.80;94.00
28530;DHT22;15737;49.760;6.632;2023-09-19T09:18:38;23.00;95.40
28530;DHT22;15737;49.760;6.632;2023-09-19T09:21:03;21.80;97.20
28530;DHT22;15737;49.760;6.632;2023-09-19T09:23:32;20.70;98.80
28530;DHT22;15737;49.760;6.632;2023-09-19T09:25:58;19.90;99.90
28530;DHT22;15737;49.760;6.632;2023-09-19T09:28:29;19.50;99.90
28530;DHT22;15737;49.760;6.632;2023-09-19T09:30:56;19.20;99.90
28530;DHT22;15737;49.760;6.632;2023-09-19T09:33:23;19.20;99.90
28530;DHT22;15737;49.760;6.632;2023-09-19T09:35:50;19.90;99.90
28530;DHT22;15737;49.760;6.632;2023-09-19T09:38:18;20.60;99.90
28530;DHT22;15737;49.760;6.632;2023-09-19T09:40:49;20.60;99.40
28530;DHT22;15737;49.760;6.632;2023-09-19T09:43:45;19.30;99.90
28530;DHT22;15737;49.760;6.632;2023-09-19T09:46:18;18.80;99.90
28530;DHT22;15737;49.760;6.632;2023-09-19T09:51:48;19.60;99.90
28530;DHT22;15737;49.760;6.632;2023-09-19T09:54:23;19.80;99.90
28530;DHT22;15737;49.760;6.632;2023-09-19T09:56:53;19.30;99.90
28530;DHT22;15737;49.760;6.632;2023-09-19T09:59:20;19.80;99.90
28530;DHT22;15737;49.760;6.632;2023-09-19T10:01:49;19.70;99.90
28530;DHT22;15737;49.760;6.632;2023-09-19T10:04:28;19.40;99.90
28530;DHT22;15737;49.760;6.632;2023-09-19T10:07:02;20.00;99.90
28530;DHT22;15737;49.760;6.632;2023-09-19T10:09:45;19.50;99.90
28530;DHT22;15737;49.760;6.632;2023-09-19T10:12:13;19.50;99.90
28530;DHT22;15737;49.760;6.632;2023-09-19T10:14:41;19.30;99.90
28530;DHT22;15737;49.760;6.632;2023-09-19T10:17:10;19.30;99.90
28530;DHT22;15737;49.760;6.632;2023-09-19T10:19:54;19.80;99.90
28530;DHT22;15737;49.760;6.632;2023-09-19T10:22:23;21.30;99.80
28530;DHT22;15737;49.760;6.632;2023-09-19T10:24:50;23.00;96.80
28530;DHT22;15737;49.760;6.632;2023-09-19T10:27:20;24.30;94.60
28530;DHT22;15737;49.760;6.632;2023-09-19T10:29:49;24.40;92.80
28530;DHT22;15737;49.760;6.632;2023-09-19T10:32:16;24.50;92.70
28530;DHT22;15737;49.760;6.632;2023-09-19T10:34:49;24.80;91.40
28530;DHT22;15737;49.760;6.632;2023-09-19T10:37:16;25.50;87.60
28530;DHT22;15737;49.760;6.632;2023-09-19T10:39:46;25.30;86.20
28530;DHT22;15737;49.760;6.632;2023-09-19T10:42:14;23.90;88.90
28530;DHT22;15737;49.760;6.632;2023-09-19T10:44:42;23.50;90.10
28530;DHT22;15737;49.760;6.632;2023-09-19T10:49:44;23.00;90.80
28530;DHT22;15737;49.760;6.632;2023-09-19T10:52:14;24.10;90.10
28530;DHT22;15737;49.760;6.632;2023-09-19T10:54:48;24.60;87.70
28530;DHT22;15737;49.760;6.632;2023-09-19T10:57:21;24.50;85.40
28530;DHT22;15737;49.760;6.632;2023-09-19T11:00:11;24.60;85.70
28530;DHT22;15737;49.760;6.632;2023-09-19T11:03:27;24.40;86.20
28530;DHT22;15737;49.760;6.632;2023-09-19T11:06:03;24.10;85.00
28530;DHT22;15737;49.760;6.632;2023-09-19T11:30:44;23.40;82.50
28530;DHT22;15737;49.760;6.632;2023-09-19T11:33:30;23.60;82.50
28530;DHT22;15737;49.760;6.632;2023-09-19T11:46:33;22.90;83.80
28530;DHT22;15737;49.760;6.632;2023-09-19T11:51:43;21.90;86.60
28530;DHT22;15737;49.760;6.632;2023-09-19T11:54:13;22.40;84.40
28530;DHT22;15737;49.760;6.632;2023-09-19T11:56:49;23.00;83.60
28530;DHT22;15737;49.760;6.632;2023-09-19T11:59:26;23.40;82.10
28530;DHT22;15737;49.760;6.632;2023-09-19T12:01:57;23.40;82.00
28530;DHT22;15737;49.760;6.632;2023-09-19T12:04:38;23.80;79.00
28530;DHT22;15737;49.760;6.632;2023-09-19T12:07:09;23.50;78.40
28530;DHT22;15737;49.760;6.632;2023-09-19T12:09:39;22.70;81.00
28530;DHT22;15737;49.760;6.632;2023-09-19T12:12:06;22.60;82.80
28530;DHT22;15737;49.760;6.632;2023-09-19T12:14:31;22.80;82.70
28530;DHT22;15737;49.760;6.632;2023-09-19T12:16:57;23.20;81.50
28530;DHT22;15737;49.760;6.632;2023-09-19T12:19:24;23.40;81.10
28530;DHT22;15737;49.760;6.632;2023-09-19T12:21:58;23.20;80.60
28530;DHT22;15737;49.760;6.632;2023-09-19T12:24:27;23.50;79.90
28530;DHT22;15737;49.760;6.632;2023-09-19T12:27:00;23.90;78.70
28530;DHT22;15737;49.760;6.632;2023-09-19T12:29:27;24.30;76.90
28530;DHT22;15737;49.760;6.632;2023-09-19T12:31:58;24.30;75.50
28530;DHT22;15737;49.760;6.632;2023-09-19T12:34:28;23.90;75.20
28530;DHT22;15737;49.760;6.632;2023-09-19T12:37:07;23.30;77.50
28530;DHT22;15737;49.760;6.632;2023-09-19T12:39:46;23.50;78.00
28530;DHT22;15737;49.760;6.632;2023-09-19T12:42:17;23.90;77.00
28530;DHT22;15737;49.760;6.632;2023-09-19T12:44:45;24.20;76.00
28530;DHT22;15737;49.760;6.632;2023-09-19T12:47:12;24.00;76.00
28530;DHT22;15737;49.760;6.632;2023-09-19T12:52:37;24.20;76.90
28530;DHT22;15737;49.760;6.632;2023-09-19T12:55:04;24.30;77.80
28530;DHT22;15737;49.760;6.632;2023-09-19T12:57:32;25.30;76.60
28530;DHT22;15737;49.760;6.632;2023-09-19T13:00:03;25.70;73.20
28530;DHT22;15737;49.760;6.632;2023-09-19T13:02:31;25.10;73.50
28530;DHT22;15737;49.760;6.632;2023-09-19T13:04:57;24.90;75.60
28530;DHT22;15737;49.760;6.632;2023-09-19T13:07:44;25.20;75.90
28530;DHT22;15737;49.760;6.632;2023-09-19T13:10:12;25.50;73.30
28530;DHT22;15737;49.760;6.632;2023-09-19T13:12:42;25.30;72.40
28530;DHT22;15737;49.760;6.632;2023-09-19T13:15:14;24.20;74.50
28530;DHT22;15737;49.760;6.632;2023-09-19T13:17:45;23.50;75.90
28530;DHT22;15737;49.760;6.632;2023-09-19T13:20:25;23.10;77.80
28530;DHT22;15737;49.760;6.632;2023-09-19T13:22:53;23.70;77.80
28530;DHT22;15737;49.760;6.632;2023-09-19T13:25:23;24.10;77.10
28530;DHT22;15737;49.760;6.632;2023-09-19T13:27:56;24.00;77.90
28530;DHT22;15737;49.760;6.632;2023-09-19T13:30:24;24.30;77.30
28530;DHT22;15737;49.760;6.632;2023-09-19T13:33:10;24.10;77.00
28530;DHT22;15737;49.760;6.632;2023-09-19T13:35:36;23.90;77.20
28530;DHT22;15737;49.760;6.632;2023-09-19T13:38:03;23.90;78.20
28530;DHT22;15737;49.760;6.632;2023-09-19T13:40:29;23.70;78.40
28530;DHT22;15737;49.760;6.632;2023-09-19T13:43:00;23.30;79.50
28530;DHT22;15737;49.760;6.632;2023-09-19T13:45:29;23.10;79.90
28530;DHT22;15737;49.760;6.632;2023-09-19T13:47:57;22.80;80.60
28530;DHT22;15737;49.760;6.632;2023-09-19T13:50:24;22.80;81.70
28530;DHT22;15737;49.760;6.632;2023-09-19T13:55:15;24.20;80.10
28530;DHT22;15737;49.760;6.632;2023-09-19T13:57:45;25.00;77.70
28530;DHT22;15737;49.760;6.632;2023-09-19T14:00:11;24.80;77.00
28530;DHT22;15737;49.760;6.632;2023-09-19T14:02:40;24.70;78.30
28530;DHT22;15737;49.760;6.632;2023-09-19T14:05:05;25.00;77.30
28530;DHT22;15737;49.760;6.632;2023-09-19T14:07:32;24.70;76.30
28530;DHT22;15737;49.760;6.632;2023-09-19T14:09:57;24.10;77.80
28530;DHT22;15737;49.760;6.632;2023-09-19T14:12:24;23.40;79.80
28530;DHT22;15737;49.760;6.632;2023-09-19T14:14:49;22.90;81.50
28530;DHT22;15737;49.760;6.632;2023-09-19T14:17:16;22.60;81.90
28530;DHT22;15737;49.760;6.632;2023-09-19T14:19:42;22.40;82.90
28530;DHT22;15737;49.760;6.632;2023-09-19T14:22:09;22.10;84.20
28530;DHT22;15737;49.760;6.632;2023-09-19T14:24:35;22.80;82.90
28530;DHT22;15737;49.760;6.632;2023-09-19T14:27:01;23.20;82.30
28530;DHT22;15737;49.760;6.632;2023-09-19T14:29:30;23.00;81.50
28530;DHT22;15737;49.760;6.632;2023-09-19T14:31:55;22.80;82.60
28530;DHT22;15737;49.760;6.632;2023-09-19T14:34:22;22.20;82.90
28530;DHT22;15737;49.760;6.632;2023-09-19T14:36:48;21.80;83.80
28530;DHT22;15737;49.760;6.632;2023-09-19T14:39:14;21.60;84.40
28530;DHT22;15737;49.760;6.632;2023-09-19T14:41:39;21.90;84.30
28530;DHT22;15737;49.760;6.632;2023-09-19T14:44:05;22.60;82.40
28530;DHT22;15737;49.760;6.632;2023-09-19T14:46:30;22.60;83.30
28530;DHT22;15737;49.760;6.632;2023-09-19T14:48:56;22.50;83.00
28530;DHT22;15737;49.760;6.632;2023-09-19T14:51:25;22.30;83.40
28530;DHT22;15737;49.760;6.632;2023-09-19T14:53:50;21.90;83.80
28530;DHT22;15737;49.760;6.632;2023-09-19T14:56:16;21.60;84.80
28530;DHT22;15737;49.760;6.632;2023-09-19T14:58:44;21.50;86.10
28530;DHT22;15737;49.760;6.632;2023-09-19T15:01:11;21.30;87.40
28530;DHT22;15737;49.760;6.632;2023-09-19T15:03:38;21.50;87.80
28530;DHT22;15737;49.760;6.632;2023-09-19T15:06:06;21.50;86.90
28530;DHT22;15737;49.760;6.632;2023-09-19T15:08:33;21.60;88.00
28530;DHT22;15737;49.760;6.632;2023-09-19T15:11:00;21.60;88.00
28530;DHT22;15737;49.760;6.632;2023-09-19T15:13:29;21.70;88.10
28530;DHT22;15737;49.760;6.632;2023-09-19T15:15:59;21.60;87.50
28530;DHT22;15737;49.760;6.632;2023-09-19T15:18:26;21.40;88.70
28530;DHT22;15737;49.760;6.632;2023-09-19T15:20:52;21.30;89.50
28530;DHT22;15737;49.760;6.632;2023-09-19T15:23:18;21.20;89.90
28530;DHT22;15737;49.760;6.632;2023-09-19T15:25:48;21.10;90.20
28530;DHT22;15737;49.760;6.632;2023-09-19T15:28:14;21.10;90.60
28530;DHT22;15737;49.760;6.632;2023-09-19T15:30:40;21.00;90.70
28530;DHT22;15737;49.760;6.632;2023-09-19T15:33:05;21.00;90.90
28530;DHT22;15737;49.760;6.632;2023-09-19T15:35:31;20.80;91.30
28530;DHT22;15737;49.760;6.632;2023-09-19T15:37:56;20.70;91.80
28530;DHT22;15737;49.760;6.632;2023-09-19T15:40:24;20.60;92.10
28530;DHT22;15737;49.760;6.632;2023-09-19T15:42:50;20.50;92.30
28530;DHT22;15737;49.760;6.632;2023-09-19T15:45:16;20.70;92.40
28530;DHT22;15737;49.760;6.632;2023-09-19T15:47:44;20.80;92.50
28530;DHT22;15737;49.760;6.632;2023-09-19T15:50:10;20.80;92.50
28530;DHT22;15737;49.760;6.632;2023-09-19T15:52:38;20.70;92.70
28530;DHT22;15737;49.760;6.632;2023-09-19T15:55:05;20.60;93.30
28530;DHT22;15737;49.760;6.632;2023-09-19T15:57:31;20.70;93.40
28530;DHT22;15737;49.760;6.632;2023-09-19T15:59:57;20.60;93.20
28530;DHT22;15737;49.760;6.632;2023-09-19T16:02:23;20.50;93.20
28530;DHT22;15737;49.760;6.632;2023-09-19T16:04:50;20.40;93.60
28530;DHT22;15737;49.760;6.632;2023-09-19T16:07:16;20.30;93.50
28530;DHT22;15737;49.760;6.632;2023-09-19T16:09:41;20.40;93.50
28530;DHT22;15737;49.760;6.632;2023-09-19T16:12:07;20.40;93.60
28530;DHT22;15737;49.760;6.632;2023-09-19T16:14:34;20.40;93.60
28530;DHT22;15737;49.760;6.632;2023-09-19T16:17:00;20.20;93.80
28530;DHT22;15737;49.760;6.632;2023-09-19T16:19:27;20.20;94.00
28530;DHT22;15737;49.760;6.632;2023-09-19T16:21:53;20.00;94.30
28530;DHT22;15737;49.760;6.632;2023-09-19T16:24:18;20.00;94.70
28530;DHT22;15737;49.760;6.632;2023-09-19T16:26:44;19.80;94.90
28530;DHT22;15737;49.760;6.632;2023-09-19T16:31:39;19.70;95.40
28530;DHT22;15737;49.760;6.632;2023-09-19T16:34:05;19.70;95.40
28530;DHT22;15737;49.760;6.632;2023-09-19T16:36:30;19.70;95.60
28530;DHT22;15737;49.760;6.632;2023-09-19T16:38:56;19.70;95.80
28530;DHT22;15737;49.760;6.632;2023-09-19T16:41:23;19.70;96.00
28530;DHT22;15737;49.760;6.632;2023-09-19T16:43:48;19.60;96.10
28530;DHT22;15737;49.760;6.632;2023-09-19T16:46:15;19.50;96.50
28530;DHT22;15737;49.760;6.632;2023-09-19T16:48:45;19.50;96.80
28530;DHT22;15737;49.760;6.632;2023-09-19T16:51:12;19.30;97.20